Time;durP1;ratioP1;P1;durP2;ratioP2;P2;SDS_P1;SDS_P2;PMS_P1;PMS_P2;Temp;Humidity;BMP_temperature;BMP_pressure;BME280_temperature;BME280_humidity;BME280_pressure;Samples;Min_cycle;Max_cycle;Signal;HPM_P1;HPM_P2
2022/07/21 00:00:25;;;;;;;6.32;5.35;;;22.20;75.80;;;;;;5079330;28;20448;-79
2022/07/21 00:02:51;;;;;;;6.32;5.10;;;22.30;76.00;;;;;;5098774;28;20024;-78
2022/07/21 00:05:17;;;;;;;5.43;4.93;;;22.30;76.10;;;;;;5098087;28;20107;-79
2022/07/21 00:07:44;;;;;;;5.70;5.07;;;22.30;76.00;;;;;;5096672;28;20024;-78
2022/07/21 00:10:10;;;;;;;5.22;4.72;;;22.30;75.90;;;;;;5098268;28;20031;-79
2022/07/21 00:12:36;;;;;;;5.80;4.45;;;22.30;75.80;;;;;;5077600;28;20039;-79
2022/07/21 00:15:04;;;;;;;5.75;4.65;;;22.30;75.70;;;;;;5097480;28;20428;-80
2022/07/21 00:17:29;;;;;;;5.07;4.32;;;22.30;75.60;;;;;;5099237;28;20040;-79
2022/07/21 00:19:56;;;;;;;4.90;4.40;;;22.30;75.30;;;;;;5081225;28;20017;-80
2022/07/21 00:22:21;;;;;;;5.38;4.88;;;22.20;75.30;;;;;;5097265;28;20023;-80
2022/07/21 00:24:47;;;;;;;6.63;4.90;;;22.20;75.50;;;;;;5099223;28;20089;-80
2022/07/21 00:27:12;;;;;;;5.95;4.93;;;22.20;75.70;;;;;;5099247;28;20032;-80
2022/07/21 00:29:38;;;;;;;5.88;4.95;;;22.10;75.80;;;;;;5080211;28;20035;-79
2022/07/21 00:32:05;;;;;;;5.30;4.80;;;22.20;76.00;;;;;;5080379;28;20041;-80
2022/07/21 00:34:31;;;;;;;5.07;4.22;;;22.20;75.90;;;;;;5099285;28;20028;-79
2022/07/21 00:36:57;;;;;;;5.55;4.65;;;22.20;76.00;;;;;;5098179;28;20024;-78
2022/07/21 00:39:23;;;;;;;5.70;5.20;;;22.20;75.90;;;;;;5080529;28;20356;-80
2022/07/21 00:41:48;;;;;;;5.50;4.97;;;22.20;75.80;;;;;;5081949;28;20023;-79
2022/07/21 00:44:25;;;;;;;6.40;5.32;;;22.20;75.70;;;;;;5085480;28;20494;-79
2022/07/21 00:46:52;;;;;;;6.03;5.35;;;22.20;76.10;;;;;;5102888;28;20099;-79
2022/07/21 00:49:18;;;;;;;6.30;5.25;;;22.20;76.00;;;;;;5101475;28;20043;-80
2022/07/21 00:51:43;;;;;;;6.07;5.45;;;22.20;75.90;;;;;;5102286;28;20024;-78
2022/07/21 00:54:09;;;;;;;6.50;5.90;;;22.10;76.00;;;;;;5083214;28;20372;-80
2022/07/21 00:56:35;;;;;;;6.97;6.22;;;22.10;76.10;;;;;;5083078;28;20031;-79
2022/07/21 00:59:02;;;;;;;7.10;6.40;;;22.10;76.30;;;;;;5084468;28;20047;-79
2022/07/21 01:01:27;;;;;;;7.60;6.80;;;22.10;76.40;;;;;;5102515;28;20016;-79
2022/07/21 01:03:53;;;;;;;7.05;6.35;;;22.20;76.60;;;;;;5101979;28;20028;-79
2022/07/21 01:06:18;;;;;;;6.68;6.00;;;22.20;76.70;;;;;;5083510;28;20123;-80
2022/07/21 01:08:44;;;;;;;8.15;6.68;;;22.20;76.70;;;;;;5103115;28;20035;-79
2022/07/21 01:11:10;;;;;;;7.05;6.35;;;22.20;76.60;;;;;;5083820;28;20022;-79
2022/07/21 01:13:41;;;;;;;7.38;6.68;;;22.20;76.60;;;;;;5101816;28;20030;-79
2022/07/21 01:16:10;;;;;;;7.72;6.93;;;22.20;76.60;;;;;;5083517;28;20050;-80
2022/07/21 01:18:36;;;;;;;7.38;6.68;;;22.20;76.60;;;;;;5081890;28;20487;-80
2022/07/21 01:21:08;;;;;;;7.43;6.72;;;22.20;76.60;;;;;;5082582;28;20040;-79
2022/07/21 01:23:33;;;;;;;7.22;6.20;;;22.20;76.60;;;;;;5082043;28;20040;-79
2022/07/21 01:25:59;;;;;;;8.77;6.38;;;22.10;76.50;;;;;;5100044;28;20032;-79
2022/07/21 01:28:25;;;;;;;7.68;6.65;;;22.10;76.50;;;;;;5100959;28;20032;-78
2022/07/21 01:30:50;;;;;;;7.47;6.53;;;22.10;76.60;;;;;;5082988;28;20052;-79
2022/07/21 01:33:16;;;;;;;7.05;6.35;;;22.10;76.70;;;;;;5082566;28;20043;-79
2022/07/21 01:35:42;;;;;;;7.03;6.43;;;22.10;76.80;;;;;;5101536;28;20032;-80
2022/07/21 01:41:28;;;;;;;8.27;7.03;;;22.10;76.80;;;;;;5100969;28;20028;-79
2022/07/21 01:43:44;;;;;;;7.18;6.30;;;22.10;76.90;;;;;;5101467;28;20063;-79
2022/07/21 01:46:13;;;;;;;8.88;6.95;;;22.10;76.80;;;;;;5083646;28;20028;-79
2022/07/21 01:48:43;;;;;;;7.28;6.03;;;22.10;76.80;;;;;;5083133;28;20031;-80
2022/07/21 01:51:09;;;;;;;6.72;6.05;;;22.00;76.70;;;;;;5101923;28;20086;-79
2022/07/21 01:53:34;;;;;;;8.10;6.38;;;22.00;76.70;;;;;;5081892;28;20032;-79
2022/07/21 01:56:00;;;;;;;7.07;6.38;;;21.90;76.70;;;;;;5082945;28;20032;-79
2022/07/21 01:58:25;;;;;;;7.03;6.35;;;21.90;76.80;;;;;;5083774;28;20540;-79
2022/07/21 02:00:51;;;;;;;7.22;6.50;;;21.90;76.80;;;;;;5083580;28;20031;-80
2022/07/21 02:03:16;;;;;;;7.90;7.07;;;21.90;76.70;;;;;;5100816;28;20020;-79
2022/07/21 02:05:42;;;;;;;7.20;6.50;;;21.90;76.70;;;;;;5084120;28;20028;-80
2022/07/21 02:08:07;;;;;;;8.32;7.53;;;21.90;76.70;;;;;;5101432;28;20031;-79
2022/07/21 02:10:33;;;;;;;9.07;8.18;;;21.90;76.60;;;;;;5101439;28;20020;-80
2022/07/21 02:12:59;;;;;;;8.73;7.82;;;21.90;76.50;;;;;;5100943;28;20020;-80
2022/07/21 02:15:24;;;;;;;8.55;7.75;;;21.90;76.50;;;;;;5101997;28;20047;-80
2022/07/21 02:17:50;;;;;;;8.02;7.22;;;21.80;76.50;;;;;;5100228;28;20043;-80
2022/07/21 02:20:16;;;;;;;8.77;7.80;;;21.80;76.60;;;;;;5083217;28;20024;-79
2022/07/21 02:22:45;;;;;;;8.45;7.47;;;21.80;76.60;;;;;;5082094;28;20073;-80
2022/07/21 02:25:10;;;;;;;9.82;7.72;;;21.80;76.60;;;;;;5082166;28;20036;-80
2022/07/21 02:27:36;;;;;;;9.07;7.63;;;21.70;76.70;;;;;;5082378;28;20069;-80
2022/07/21 02:30:03;;;;;;;8.98;8.07;;;21.70;76.90;;;;;;5082988;28;20024;-80
2022/07/21 02:32:29;;;;;;;9.27;7.78;;;21.60;76.90;;;;;;5100216;28;20059;-80
2022/07/21 02:34:54;;;;;;;8.73;7.60;;;21.60;77.70;;;;;;5081476;28;20457;-79
2022/07/21 02:37:20;;;;;;;8.82;7.57;;;21.60;77.20;;;;;;5082383;28;20032;-80
2022/07/21 02:39:45;;;;;;;8.68;7.78;;;21.60;77.20;;;;;;5081417;28;20097;-79
2022/07/21 02:42:11;;;;;;;9.30;7.75;;;21.60;77.20;;;;;;5082812;28;20034;-80
2022/07/21 02:44:37;;;;;;;9.02;8.13;;;21.60;77.20;;;;;;5082614;28;20081;-80
2022/07/21 02:47:03;;;;;;;9.70;8.70;;;21.50;77.30;;;;;;5099876;28;20103;-79
2022/07/21 02:49:29;;;;;;;10.20;7.93;;;21.50;77.40;;;;;;5081441;28;20441;-79
2022/07/21 02:51:54;;;;;;;9.70;7.93;;;21.50;77.40;;;;;;5082873;28;20028;-79
2022/07/21 02:54:20;;;;;;;10.00;8.50;;;21.60;77.50;;;;;;5082997;28;20032;-79
2022/07/21 02:56:45;;;;;;;9.30;8.40;;;21.60;77.50;;;;;;5082040;28;20028;-80
2022/07/21 02:59:11;;;;;;;9.43;8.52;;;21.60;77.50;;;;;;5099803;28;20028;-79
2022/07/21 03:01:37;;;;;;;9.55;8.55;;;21.60;77.50;;;;;;5100252;28;20099;-79
2022/07/21 03:04:02;;;;;;;9.45;8.45;;;21.60;77.50;;;;;;5082877;28;20028;-79
2022/07/21 03:06:28;;;;;;;11.02;9.18;;;21.70;77.50;;;;;;5100448;28;20031;-80
2022/07/21 03:08:53;;;;;;;9.82;8.65;;;21.70;77.40;;;;;;5083328;28;20479;-80
2022/07/21 03:11:19;;;;;;;11.75;9.77;;;21.70;77.40;;;;;;5082076;28;20059;-79
2022/07/21 03:13:45;;;;;;;9.40;8.50;;;21.70;77.30;;;;;;5082259;28;20042;-78
2022/07/21 03:16:10;;;;;;;10.88;9.20;;;21.70;77.40;;;;;;5083018;28;20024;-79
2022/07/21 03:18:36;;;;;;;11.20;9.50;;;21.70;77.30;;;;;;5101469;28;20043;-80
2022/07/21 03:21:02;;;;;;;10.57;9.57;;;21.70;77.30;;;;;;5100821;28;20099;-80
2022/07/21 03:23:28;;;;;;;10.25;9.25;;;21.70;77.30;;;;;;5082207;28;20016;-80
2022/07/21 03:25:53;;;;;;;10.45;9.38;;;21.60;77.30;;;;;;5082563;28;20027;-80
2022/07/21 03:28:19;;;;;;;11.05;9.95;;;21.60;77.40;;;;;;5083181;28;20348;-79
2022/07/21 03:30:45;;;;;;;11.13;9.93;;;21.60;77.50;;;;;;5081893;28;20129;-79
2022/07/21 03:33:10;;;;;;;10.95;9.77;;;21.60;77.50;;;;;;5083241;28;20062;-80
2022/07/21 03:35:36;;;;;;;10.50;9.45;;;21.60;77.40;;;;;;5083428;28;20020;-80
2022/07/21 03:38:03;;;;;;;9.45;8.50;;;21.60;77.40;;;;;;5083085;28;20133;-80
2022/07/21 03:40:31;;;;;;;10.98;9.07;;;21.60;77.40;;;;;;5099927;28;20028;-79
2022/07/21 03:42:59;;;;;;;10.32;8.95;;;21.60;77.50;;;;;;5099485;28;20020;-80
2022/07/21 03:45:26;;;;;;;10.70;9.25;;;21.60;77.50;;;;;;5100758;28;20044;-80
2022/07/21 03:47:52;;;;;;;10.43;9.32;;;21.60;77.50;;;;;;5081184;28;20095;-80
2022/07/21 03:50:17;;;;;;;9.35;8.45;;;21.60;77.60;;;;;;5081948;28;20028;-80
2022/07/21 03:52:47;;;;;;;9.75;8.75;;;21.60;77.50;;;;;;5099777;28;20111;-80
2022/07/21 03:55:18;;;;;;;9.68;8.52;;;21.60;77.50;;;;;;5098587;28;20074;-80
2022/07/21 03:57:55;;;;;;;10.27;9.18;;;21.60;77.50;;;;;;5097839;28;20093;-80
2022/07/21 04:00:39;;;;;;;11.30;9.93;;;21.50;77.50;;;;;;5097927;28;20028;-79
2022/07/21 04:03:06;;;;;;;10.55;9.15;;;21.50;77.60;;;;;;5099402;28;20024;-80
2022/07/21 04:05:32;;;;;;;10.30;9.00;;;21.40;77.70;;;;;;5099314;28;20038;-80
2022/07/21 04:07:59;;;;;;;12.18;9.30;;;21.40;77.70;;;;;;5099042;28;20055;-80
2022/07/21 04:10:27;;;;;;;11.48;10.38;;;21.40;77.70;;;;;;5099990;28;20525;-80
2022/07/21 04:12:54;;;;;;;11.23;10.10;;;21.40;77.70;;;;;;5082274;28;20024;-80
2022/07/21 04:15:20;;;;;;;12.30;10.05;;;21.40;77.80;;;;;;5081281;28;20035;-81
2022/07/21 04:17:46;;;;;;;12.52;10.48;;;21.40;77.90;;;;;;5103407;28;20124;-80
2022/07/21 04:20:13;;;;;;;11.52;10.35;;;21.40;77.80;;;;;;5104590;28;20032;-80
2022/07/21 04:22:40;;;;;;;11.15;9.98;;;21.40;77.90;;;;;;5104629;28;20476;-79
2022/07/21 04:25:07;;;;;;;11.70;10.50;;;21.30;77.90;;;;;;5105033;28;20078;-80
2022/07/21 04:27:33;;;;;;;11.05;9.88;;;21.30;77.90;;;;;;5087011;28;20437;-80
2022/07/21 04:30:00;;;;;;;10.80;9.68;;;21.30;78.00;;;;;;5087102;28;20076;-80
2022/07/21 04:32:26;;;;;;;11.85;10.65;;;21.40;78.10;;;;;;5103887;28;20039;-79
2022/07/21 04:34:51;;;;;;;11.02;9.25;;;21.40;78.00;;;;;;5086266;28;20028;-80
2022/07/21 04:37:17;;;;;;;12.43;10.60;;;21.40;78.00;;;;;;5104774;28;20089;-80
2022/07/21 04:39:43;;;;;;;13.27;10.90;;;21.40;78.00;;;;;;5104351;28;20483;-80
2022/07/21 04:42:08;;;;;;;12.10;10.80;;;21.40;78.00;;;;;;5085850;28;20391;-80
2022/07/21 04:44:34;;;;;;;13.18;11.07;;;21.40;78.00;;;;;;5103701;28;20772;-80
2022/07/21 04:46:59;;;;;;;11.02;10.00;;;21.40;78.00;;;;;;5085243;28;20123;-79
2022/07/21 04:49:25;;;;;;;12.35;11.05;;;21.40;77.90;;;;;;5103783;28;20024;-79
2022/07/21 04:51:51;;;;;;;12.65;11.38;;;21.40;77.90;;;;;;5101902;28;20036;-79
2022/07/21 04:54:16;;;;;;;12.38;11.13;;;21.40;77.90;;;;;;5085679;28;20081;-79
2022/07/21 04:56:43;;;;;;;12.15;10.95;;;21.50;77.90;;;;;;5100580;28;20058;-80
2022/07/21 04:59:09;;;;;;;14.45;11.30;;;21.50;77.90;;;;;;5103654;28;20032;-79
2022/07/21 05:01:36;;;;;;;13.82;11.90;;;21.40;77.90;;;;;;5084864;28;20074;-78
2022/07/21 05:04:02;;;;;;;13.90;12.30;;;21.50;77.90;;;;;;5086041;28;20024;-80
2022/07/21 05:06:27;;;;;;;14.98;11.93;;;21.40;77.90;;;;;;5084822;28;20181;-79
2022/07/21 05:08:53;;;;;;;14.57;11.90;;;21.40;77.90;;;;;;5084913;28;20035;-80
2022/07/21 05:11:19;;;;;;;12.90;11.60;;;21.40;78.00;;;;;;5085788;28;20036;-80
2022/07/21 05:13:44;;;;;;;14.00;11.38;;;21.40;77.90;;;;;;5086074;28;20032;-80
2022/07/21 05:16:10;;;;;;;15.65;12.98;;;21.40;77.90;;;;;;5081871;28;20046;-80
2022/07/21 05:18:36;;;;;;;15.55;12.88;;;21.40;78.00;;;;;;5102530;28;20036;-80
2022/07/21 05:21:01;;;;;;;14.15;11.88;;;21.40;78.00;;;;;;5102756;28;20071;-80
2022/07/21 05:23:27;;;;;;;15.55;13.02;;;21.40;78.00;;;;;;5084001;28;20032;-80
2022/07/21 05:25:52;;;;;;;16.13;13.55;;;21.30;77.90;;;;;;5083687;28;20035;-81
2022/07/21 05:28:18;;;;;;;16.42;12.98;;;21.30;78.00;;;;;;5101877;28;20081;-80
2022/07/21 05:30:44;;;;;;;16.02;12.13;;;21.30;78.10;;;;;;5084710;28;20036;-80
2022/07/21 05:33:09;;;;;;;14.85;12.65;;;21.30;78.20;;;;;;5084833;28;20038;-80
2022/07/21 05:35:35;;;;;;;18.20;13.13;;;21.30;78.40;;;;;;5085172;28;20050;-80
2022/07/21 05:38:01;;;;;;;15.80;13.10;;;21.30;78.40;;;;;;5102208;28;20107;-80
2022/07/21 05:40:27;;;;;;;19.70;13.63;;;21.20;78.40;;;;;;5102634;28;20464;-80
2022/07/21 05:42:52;;;;;;;15.32;13.32;;;21.30;78.60;;;;;;5085371;28;20508;-80
2022/07/21 05:45:18;;;;;;;14.80;12.95;;;21.30;78.60;;;;;;5084264;28;20368;-80
2022/07/21 05:47:43;;;;;;;15.07;13.48;;;21.30;78.60;;;;;;5084927;28;20028;-80
2022/07/21 05:50:10;;;;;;;16.30;14.60;;;21.40;78.50;;;;;;5101089;28;20028;-80
2022/07/21 05:52:35;;;;;;;15.95;14.00;;;21.40;78.40;;;;;;5101408;28;20032;-81
2022/07/21 05:55:01;;;;;;;16.17;14.48;;;21.40;78.40;;;;;;5100605;28;20501;-80
2022/07/21 05:57:27;;;;;;;17.60;14.98;;;21.30;78.50;;;;;;5081957;28;20399;-80
2022/07/21 05:59:52;;;;;;;19.58;15.38;;;21.30;78.60;;;;;;5082884;28;20134;-80
2022/07/21 06:02:18;;;;;;;20.63;15.80;;;21.30;78.60;;;;;;5082192;28;20039;-79
2022/07/21 06:04:44;;;;;;;17.90;15.88;;;21.30;78.60;;;;;;5100082;28;20032;-79
2022/07/21 06:07:10;;;;;;;17.95;16.02;;;21.20;78.50;;;;;;5079159;28;20376;-79
2022/07/21 06:09:35;;;;;;;16.70;14.90;;;21.20;78.60;;;;;;5083192;28;20028;-79
2022/07/21 06:12:01;;;;;;;16.45;14.75;;;21.20;78.60;;;;;;5082061;28;20448;-80
2022/07/21 06:14:27;;;;;;;17.25;14.38;;;21.20;78.60;;;;;;5083031;28;20028;-80
2022/07/21 06:16:52;;;;;;;15.43;13.73;;;21.20;78.60;;;;;;5097368;28;20036;-80
2022/07/21 06:19:18;;;;;;;15.70;13.55;;;21.20;78.50;;;;;;5082278;28;20051;-80
2022/07/21 06:21:44;;;;;;;14.60;13.10;;;21.20;78.50;;;;;;5100428;28;20068;-79
2022/07/21 06:24:10;;;;;;;16.35;13.73;;;21.20;78.50;;;;;;5079856;28;20028;-80
2022/07/21 06:26:36;;;;;;;15.25;13.40;;;21.20;78.50;;;;;;5101757;28;20071;-80
2022/07/21 06:29:02;;;;;;;14.80;13.20;;;21.20;78.40;;;;;;5082501;28;20403;-80
2022/07/21 06:31:28;;;;;;;14.63;13.00;;;21.30;78.30;;;;;;5079178;28;20066;-80
2022/07/21 06:33:53;;;;;;;14.00;12.60;;;21.30;78.20;;;;;;5083533;28;20028;-81
2022/07/21 06:36:19;;;;;;;13.80;12.30;;;21.30;78.20;;;;;;5101014;28;20040;-79
2022/07/21 06:38:45;;;;;;;15.82;13.10;;;21.40;78.00;;;;;;5081263;28;20365;-80
2022/07/21 06:41:11;;;;;;;13.68;12.25;;;21.50;77.80;;;;;;5081477;28;20024;-80
2022/07/21 06:43:37;;;;;;;15.23;12.75;;;21.60;77.70;;;;;;5098860;28;20032;-80
2022/07/21 06:46:03;;;;;;;13.57;11.63;;;21.70;77.50;;;;;;5099415;28;20028;-79
2022/07/21 06:48:28;;;;;;;13.50;12.10;;;21.80;77.20;;;;;;5099644;28;20016;-80
2022/07/21 06:50:55;;;;;;;12.73;11.43;;;21.90;76.90;;;;;;5100078;28;20028;-80
2022/07/21 06:53:22;;;;;;;14.65;12.02;;;22.00;76.70;;;;;;5099771;28;20448;-80
2022/07/21 06:55:52;;;;;;;12.38;11.10;;;22.10;76.40;;;;;;5099146;28;20028;-79
2022/07/21 06:58:22;;;;;;;14.43;12.07;;;22.10;76.20;;;;;;5081333;28;20103;-80
2022/07/21 07:00:49;;;;;;;14.27;11.43;;;22.20;76.10;;;;;;5082347;28;20028;-79
2022/07/21 07:03:15;;;;;;;13.40;11.98;;;22.20;76.00;;;;;;5082588;28;20027;-81
2022/07/21 07:05:43;;;;;;;14.38;11.77;;;22.30;75.80;;;;;;5082299;28;20038;-80
2022/07/21 07:08:09;;;;;;;15.32;12.73;;;22.30;75.60;;;;;;5084728;28;20087;-80
2022/07/21 07:10:34;;;;;;;15.32;13.73;;;22.40;75.30;;;;;;5080962;28;20144;-79
2022/07/21 07:13:01;;;;;;;15.93;13.60;;;22.40;75.30;;;;;;5083398;28;20476;-80
2022/07/21 07:15:28;;;;;;;16.10;12.68;;;22.30;75.20;;;;;;5084068;28;20035;-81
2022/07/21 07:18:49;;;;;;;16.15;14.40;;;22.30;75.10;;;;;;5077837;28;20492;-80
2022/07/21 07:21:15;;;;;;;16.80;13.85;;;22.30;75.00;;;;;;5061194;28;20056;-80
2022/07/21 07:23:40;;;;;;;15.20;13.45;;;22.20;74.90;;;;;;5058171;28;20119;-81
2022/07/21 07:26:07;;;;;;;14.85;13.18;;;22.10;75.00;;;;;;5059633;28;20029;-81
2022/07/21 07:28:33;;;;;;;17.45;14.25;;;22.10;75.10;;;;;;5060496;28;20060;-81
2022/07/21 07:30:58;;;;;;;17.67;13.65;;;22.10;75.30;;;;;;5061230;28;20029;-81
2022/07/21 07:33:25;;;;;;;15.15;12.27;;;22.10;75.20;;;;;;5059697;28;20127;-79
2022/07/21 07:35:51;;;;;;;15.60;12.40;;;22.10;75.20;;;;;;5061276;28;20039;-80
2022/07/21 07:38:17;;;;;;;14.55;12.25;;;22.10;75.20;;;;;;5059156;28;20087;-80
2022/07/21 07:40:43;;;;;;;15.45;13.32;;;22.10;75.20;;;;;;5058501;28;20116;-81
2022/07/21 07:43:09;;;;;;;17.05;12.27;;;22.10;75.20;;;;;;5060034;28;20051;-81
2022/07/21 07:45:36;;;;;;;16.75;12.85;;;22.10;75.10;;;;;;5059419;28;20032;-81
2022/07/21 07:48:02;;;;;;;15.05;12.27;;;22.10;75.00;;;;;;5059768;28;20029;-81
2022/07/21 07:50:28;;;;;;;14.98;11.65;;;22.10;75.00;;;;;;5060204;28;20035;-81
2022/07/21 07:52:54;;;;;;;16.15;11.48;;;22.20;75.00;;;;;;5063691;28;20515;-80
2022/07/21 07:55:20;;;;;;;13.95;10.95;;;22.20;74.90;;;;;;5064311;28;20051;-81
2022/07/21 07:57:46;;;;;;;14.95;11.05;;;22.20;74.80;;;;;;5064476;28;20033;-80
2022/07/21 08:00:14;;;;;;;15.85;11.80;;;22.20;74.70;;;;;;5064244;28;20025;-81
2022/07/21 08:02:40;;;;;;;16.58;11.60;;;22.30;74.70;;;;;;5064021;28;20025;-81
2022/07/21 08:05:08;;;;;;;13.93;12.43;;;22.30;74.60;;;;;;5064776;28;20032;-80
2022/07/21 08:07:34;;;;;;;15.95;12.60;;;22.40;74.50;;;;;;5064769;28;20029;-81
2022/07/21 08:10:00;;;;;;;17.27;13.68;;;22.40;74.30;;;;;;5067144;28;20041;-80
2022/07/21 08:12:26;;;;;;;14.63;11.93;;;22.40;74.10;;;;;;5067939;28;20036;-81
2022/07/21 08:14:52;;;;;;;16.55;13.35;;;22.40;74.00;;;;;;5067649;28;20048;-81
2022/07/21 08:17:17;;;;;;;14.02;11.95;;;22.40;74.00;;;;;;5070703;28;20052;-81
2022/07/21 08:19:43;;;;;;;14.52;12.07;;;22.40;74.00;;;;;;5087529;28;20044;-81
2022/07/21 08:22:09;;;;;;;15.18;12.82;;;22.40;74.50;;;;;;5083458;28;20434;-82
2022/07/21 08:24:35;;;;;;;15.48;11.85;;;22.50;73.80;;;;;;5087107;28;20081;-82
2022/07/21 08:27:00;;;;;;;14.27;12.02;;;22.50;73.80;;;;;;5102315;28;20032;-82
2022/07/21 08:29:26;;;;;;;14.35;12.27;;;22.50;73.70;;;;;;5101657;28;20036;-82
2022/07/21 08:31:52;;;;;;;14.23;12.23;;;22.50;73.60;;;;;;5099754;28;20032;-82
2022/07/21 08:34:17;;;;;;;15.93;12.45;;;22.50;73.40;;;;;;5082361;28;20111;-81
2022/07/21 08:36:43;;;;;;;14.73;11.57;;;22.60;73.40;;;;;;5079536;28;20124;-79
2022/07/21 08:39:09;;;;;;;12.10;10.27;;;22.70;73.20;;;;;;5098365;28;20479;-82
2022/07/21 08:41:37;;;;;;;12.27;10.20;;;22.80;73.10;;;;;;5076352;28;20028;-81
2022/07/21 08:44:03;;;;;;;15.27;10.90;;;22.90;73.00;;;;;;5098049;28;20395;-81
2022/07/21 08:46:30;;;;;;;12.70;10.52;;;22.90;72.80;;;;;;5099224;28;20503;-81
2022/07/21 08:48:57;;;;;;;11.48;9.75;;;22.80;72.60;;;;;;5097618;28;20483;-81
2022/07/21 08:51:23;;;;;;;15.43;10.90;;;22.90;72.70;;;;;;5096486;28;20042;-79
2022/07/21 08:53:48;;;;;;;12.15;10.55;;;22.90;72.60;;;;;;5077737;28;20111;-79
2022/07/21 08:56:14;;;;;;;11.55;9.75;;;22.90;72.60;;;;;;5079104;28;20028;-80
2022/07/21 08:58:40;;;;;;;12.52;10.20;;;22.80;72.70;;;;;;5096608;28;20210;-79
2022/07/21 09:01:06;;;;;;;12.38;9.95;;;22.80;72.80;;;;;;5096957;28;20070;-79
2022/07/21 09:03:32;;;;;;;14.70;10.45;;;22.70;72.90;;;;;;5095155;28;20040;-80
2022/07/21 09:06:15;;;;;;;17.88;11.02;;;22.70;73.00;;;;;;5077592;28;20047;-80
2022/07/21 09:08:44;;;;;;;13.02;10.30;;;22.60;73.10;;;;;;5033365;28;20214;-78
2022/07/21 09:11:12;;;;;;;13.65;10.50;;;22.50;73.40;;;;;;5016780;28;20133;-79
2022/07/21 09:13:40;;;;;;;15.68;10.15;;;22.40;73.50;;;;;;5034146;28;20045;-80
2022/07/21 09:16:06;;;;;;;15.23;10.85;;;22.40;73.70;;;;;;5017976;28;20553;-79
2022/07/21 09:18:32;;;;;;;13.23;10.18;;;22.30;73.90;;;;;;5033847;28;20570;-78
2022/07/21 09:21:01;;;;;;;13.73;10.55;;;22.20;74.00;;;;;;5033133;28;20041;-80
2022/07/21 09:23:28;;;;;;;10.68;9.35;;;22.20;74.30;;;;;;5033091;28;20041;-80
2022/07/21 09:25:58;;;;;;;11.30;9.02;;;22.10;74.60;;;;;;5016673;28;20036;-82
2022/07/21 09:28:29;;;;;;;12.02;9.25;;;22.00;74.80;;;;;;5013744;28;20049;-79
2022/07/21 09:31:00;;;;;;;13.50;9.43;;;22.00;75.00;;;;;;5033864;28;20060;-82
2022/07/21 09:33:44;;;;;;;9.10;7.97;;;22.00;75.00;;;;;;5033228;28;20535;-80
2022/07/21 09:36:18;;;;;;;10.68;7.88;;;22.00;75.20;;;;;;5032875;28;20033;-82
2022/07/21 09:38:52;;;;;;;8.52;6.82;;;21.90;75.40;;;;;;5040536;28;20037;-81
2022/07/21 09:41:27;;;;;;;8.30;6.32;;;21.80;75.70;;;;;;5094798;28;20508;-81
2022/07/21 09:43:54;;;;;;;8.00;5.57;;;21.80;76.10;;;;;;5077774;28;20022;-79
2022/07/21 09:46:24;;;;;;;6.38;5.05;;;21.80;76.40;;;;;;5094091;28;20040;-80
2022/07/21 09:48:52;;;;;;;6.95;5.25;;;21.70;76.70;;;;;;5095085;28;20479;-79
2022/07/21 09:51:33;;;;;;;5.32;4.80;;;21.60;77.10;;;;;;5077579;28;20556;-80
2022/07/21 09:54:08;;;;;;;5.00;4.50;;;21.50;77.60;;;;;;5077357;28;20032;-79
2022/07/21 09:56:36;;;;;;;4.65;4.25;;;21.50;78.00;;;;;;5094885;28;20039;-77
2022/07/21 09:59:03;;;;;;;4.25;3.85;;;21.40;78.40;;;;;;5095007;28;20032;-78
2022/07/21 10:01:30;;;;;;;4.68;4.18;;;21.30;78.60;;;;;;5093682;28;20028;-78
2022/07/21 10:03:57;;;;;;;4.90;4.40;;;21.30;78.90;;;;;;5076781;28;20035;-79
2022/07/21 10:06:28;;;;;;;4.40;3.88;;;21.30;79.20;;;;;;5094956;28;20111;-80
2022/07/21 10:08:55;;;;;;;5.45;4.57;;;21.30;79.40;;;;;;5094306;28;20028;-78
2022/07/21 10:11:23;;;;;;;4.63;4.20;;;21.20;79.40;;;;;;5093173;28;20034;-80
2022/07/21 10:13:49;;;;;;;4.68;4.03;;;21.30;79.70;;;;;;5092860;28;20035;-77
2022/07/21 10:16:15;;;;;;;4.57;3.92;;;21.30;79.80;;;;;;5076107;28;20449;-78
2022/07/21 10:18:53;;;;;;;5.18;4.05;;;21.30;80.00;;;;;;5094809;28;20430;-78
2022/07/21 10:21:33;;;;;;;5.20;4.35;;;21.30;80.20;;;;;;5094212;28;20050;-78
2022/07/21 10:24:00;;;;;;;4.00;3.58;;;21.30;80.40;;;;;;5095475;28;20044;-79
2022/07/21 10:26:25;;;;;;;3.85;3.38;;;21.20;80.50;;;;;;5095521;28;20031;-78
2022/07/21 10:28:51;;;;;;;4.95;3.72;;;21.20;80.50;;;;;;5076454;28;20380;-80
2022/07/21 10:31:27;;;;;;;3.90;3.60;;;21.20;80.80;;;;;;5077161;28;20115;-80
2022/07/21 10:33:58;;;;;;;4.30;3.72;;;21.20;80.90;;;;;;5096927;28;20024;-81
2022/07/21 10:36:26;;;;;;;4.13;3.70;;;21.20;81.00;;;;;;5095055;28;20028;-80
2022/07/21 10:39:23;;;;;;;3.97;3.67;;;21.20;81.30;;;;;;5096053;28;20388;-80
2022/07/21 10:41:51;;;;;;;4.75;3.67;;;21.20;81.50;;;;;;5064026;28;20036;-78
2022/07/21 10:44:30;;;;;;;4.18;3.83;;;21.10;81.60;;;;;;5093483;28;20115;-78
2022/07/21 10:47:11;;;;;;;3.67;3.38;;;21.10;81.80;;;;;;5076728;28;20487;-79
2022/07/21 10:49:44;;;;;;;4.57;3.60;;;21.10;81.90;;;;;;5094347;28;20032;-80
2022/07/21 10:52:35;;;;;;;4.25;3.85;;;21.00;82.00;;;;;;5092616;28;20487;-80
2022/07/21 10:55:09;;;;;;;5.63;3.92;;;21.00;82.20;;;;;;5075849;28;20043;-79
2022/07/21 10:57:36;;;;;;;4.13;3.72;;;20.90;82.40;;;;;;5076288;28;20043;-80
2022/07/21 11:00:21;;;;;;;4.38;3.97;;;20.90;82.70;;;;;;5076008;28;20558;-80
2022/07/21 11:02:53;;;;;;;4.13;3.78;;;20.90;82.90;;;;;;5095282;28;20067;-79
2022/07/21 11:05:20;;;;;;;4.50;4.10;;;20.90;82.90;;;;;;5078967;28;20387;-80
2022/07/21 11:08:08;;;;;;;4.28;3.88;;;20.90;83.00;;;;;;5078078;28;20105;-81
2022/07/21 11:10:36;;;;;;;3.97;3.22;;;20.80;83.40;;;;;;5078250;28;20028;-83
2022/07/21 11:13:02;;;;;;;3.30;2.88;;;20.70;84.10;;;;;;5098596;28;20063;-82
2022/07/21 11:15:46;;;;;;;3.20;2.90;;;20.60;83.60;;;;;;5079030;28;20028;-80
2022/07/21 11:18:19;;;;;;;3.58;2.80;;;20.50;83.70;;;;;;5099047;28;20064;-82
2022/07/21 11:21:02;;;;;;;3.50;2.90;;;20.40;83.80;;;;;;5096101;28;20093;-80
2022/07/21 11:23:57;;;;;;;3.28;2.92;;;20.40;84.10;;;;;;5096047;28;20024;-82
2022/07/21 11:26:26;;;;;;;2.60;2.40;;;20.40;84.20;;;;;;5079348;28;20051;-82
2022/07/21 11:29:05;;;;;;;2.85;2.63;;;20.40;84.10;;;;;;5078944;28;20027;-83
2022/07/21 11:31:31;;;;;;;2.95;2.65;;;20.40;84.10;;;;;;5096908;28;20043;-82
2022/07/21 11:33:57;;;;;;;3.30;3.00;;;20.50;84.10;;;;;;5096198;28;20024;-81
2022/07/21 11:36:28;;;;;;;3.05;2.75;;;20.40;84.30;;;;;;5095664;28;20365;-80
2022/07/21 11:39:00;;;;;;;3.15;2.85;;;20.40;84.40;;;;;;5094479;28;20024;-82
2022/07/21 11:41:26;;;;;;;4.07;2.80;;;20.40;84.50;;;;;;5094906;28;20020;-80
2022/07/21 11:43:52;;;;;;;3.33;3.03;;;20.50;84.70;;;;;;5096161;28;20089;-81
2022/07/21 11:46:17;;;;;;;3.25;2.95;;;20.50;84.70;;;;;;5077158;28;20479;-83
2022/07/21 11:48:43;;;;;;;3.58;3.28;;;20.60;84.70;;;;;;5077990;28;20395;-81
2022/07/21 11:51:09;;;;;;;3.30;3.03;;;20.70;84.70;;;;;;5096331;28;20059;-80
2022/07/21 11:53:34;;;;;;;4.63;3.40;;;20.70;84.40;;;;;;5077141;28;20032;-80
2022/07/21 11:56:00;;;;;;;4.82;3.72;;;20.70;84.30;;;;;;5078736;28;20031;-83
2022/07/21 11:58:26;;;;;;;3.97;3.58;;;20.70;84.30;;;;;;5078941;28;20020;-82
2022/07/21 12:01:06;;;;;;;4.30;3.90;;;20.70;84.40;;;;;;5097892;28;20368;-83
2022/07/21 12:03:32;;;;;;;4.95;4.43;;;20.70;84.50;;;;;;5077538;28;20032;-81
2022/07/21 12:05:59;;;;;;;5.93;5.10;;;20.60;84.40;;;;;;5094576;28;20086;-80
2022/07/21 12:08:26;;;;;;;5.65;5.15;;;20.60;84.60;;;;;;5093977;28;20020;-80
2022/07/21 12:11:07;;;;;;;5.93;5.32;;;20.60;84.60;;;;;;5075921;28;20110;-80
2022/07/21 12:13:52;;;;;;;6.63;5.40;;;20.60;84.50;;;;;;5076534;28;20028;-80
2022/07/21 12:16:17;;;;;;;5.82;5.25;;;20.60;84.60;;;;;;5095789;28;20077;-81
2022/07/21 12:18:43;;;;;;;5.88;5.20;;;20.60;84.40;;;;;;5094977;28;20488;-81
2022/07/21 12:21:09;;;;;;;5.57;5.00;;;20.70;84.20;;;;;;5094166;28;20094;-81
2022/07/21 12:23:35;;;;;;;5.90;5.10;;;20.80;84.10;;;;;;5094641;28;20372;-81
2022/07/21 12:26:03;;;;;;;5.88;5.38;;;20.80;83.90;;;;;;5076245;28;20107;-81
2022/07/21 12:28:46;;;;;;;6.13;5.53;;;20.70;83.70;;;;;;5095214;28;20047;-81
2022/07/21 12:31:16;;;;;;;5.70;5.20;;;20.70;83.60;;;;;;5095293;28;20078;-83
2022/07/21 12:33:42;;;;;;;5.30;4.80;;;20.70;83.60;;;;;;5094903;28;20020;-83
2022/07/21 12:36:09;;;;;;;5.70;5.20;;;20.60;83.60;;;;;;5094129;28;20027;-82
2022/07/21 12:38:38;;;;;;;5.30;4.80;;;20.60;83.60;;;;;;5098176;28;20387;-83
2022/07/21 12:41:05;;;;;;;5.47;4.93;;;20.70;83.80;;;;;;5098196;28;20502;-82
2022/07/21 12:43:30;;;;;;;5.10;4.68;;;20.80;83.90;;;;;;5097572;28;20539;-81